Time;durP1;ratioP1;P1;durP2;ratioP2;P2;SDS_P1;SDS_P2;PMS_P1;PMS_P2;Temp;Humidity;BMP_temperature;BMP_pressure;BME280_temperature;BME280_humidity;BME280_pressure;Samples;Min_cycle;Max_cycle;Signal;HPM_P1;HPM_P2
2023/10/02 00:01:06;;;;;;;14.07;7.43;;;;;;;16.56;100.00;102000.75;5076470;28;20103;-75
2023/10/02 00:03:29;;;;;;;13.38;7.28;;;;;;;16.58;100.00;101998.88;5077197;28;20199;-75
2023/10/02 00:05:55;;;;;;;10.68;6.70;;;;;;;16.61;100.00;102000.56;5077893;28;20108;-75
2023/10/02 00:08:35;;;;;;;11.70;7.13;;;;;;;16.61;100.00;101993.47;5077569;28;20170;-75
2023/10/02 00:11:35;;;;;;;12.35;6.93;;;;;;;16.62;100.00;101996.97;5077824;28;20033;-75
2023/10/02 00:14:35;;;;;;;9.60;6.50;;;;;;;16.63;100.00;101993.41;5077608;28;20404;-75
2023/10/02 00:17:06;;;;;;;10.20;6.03;;;;;;;16.63;100.00;101994.25;5077168;28;20121;-75
2023/10/02 00:19:37;;;;;;;11.25;5.93;;;;;;;16.64;100.00;101992.44;5076918;28;20044;-75
2023/10/02 00:22:06;;;;;;;7.55;5.70;;;;;;;16.64;100.00;101990.66;5077375;28;20055;-75
2023/10/02 00:24:41;;;;;;;8.90;6.25;;;;;;;16.65;100.00;101995.03;5075389;28;20031;-75
2023/10/02 00:27:08;;;;;;;9.43;6.22;;;;;;;16.65;100.00;102002.09;5077181;28;20387;-74
2023/10/02 00:29:35;;;;;;;9.25;5.95;;;;;;;16.64;100.00;101998.59;5076884;28;20227;-75
2023/10/02 00:32:10;;;;;;;10.57;6.82;;;;;;;16.64;100.00;101998.59;5077235;28;20036;-75
2023/10/02 00:34:37;;;;;;;9.75;6.20;;;;;;;16.64;100.00;101995.09;5076580;28;20024;-75
2023/10/02 00:37:05;;;;;;;14.15;7.18;;;;;;;16.63;100.00;101996.03;5077485;28;20039;-75
2023/10/02 00:39:34;;;;;;;14.50;8.07;;;;;;;16.63;100.00;102001.31;5076709;28;20212;-74
2023/10/02 00:44:52;;;;;;;14.55;8.05;;;;;;;16.61;100.00;101998.75;5076363;28;20071;-74
2023/10/02 00:50:19;;;;;;;12.30;7.47;;;;;;;16.62;100.00;102004.88;5076808;28;20382;-74
2023/10/02 00:52:45;;;;;;;12.55;7.38;;;;;;;16.61;100.00;101988.19;5076510;28;20377;-75
2023/10/02 00:55:16;;;;;;;9.35;6.90;;;;;;;16.61;100.00;102003.19;5077136;28;20028;-75
2023/10/02 00:57:45;;;;;;;10.82;7.35;;;;;;;16.61;100.00;101996.09;5075999;28;20220;-75
2023/10/02 01:00:17;;;;;;;;;;;;;;;16.59;100.00;101997.09;5077287;28;20200;-74
2023/10/02 01:02:57;;;;;;;9.85;7.13;;;;;;;16.57;100.00;101991.91;5076124;28;20255;-74
2023/10/02 01:05:30;;;;;;;12.50;7.22;;;;;;;16.54;100.00;101989.41;5076513;28;20056;-75
2023/10/02 01:07:59;;;;;;;13.55;7.53;;;;;;;16.53;100.00;101992.94;5076805;28;20020;-75
2023/10/02 01:10:30;;;;;;;15.75;8.00;;;;;;;16.50;100.00;101987.84;5076061;28;20032;-75
2023/10/02 01:13:05;;;;;;;10.90;6.95;;;;;;;16.49;100.00;101986.09;5076135;28;20123;-75
2023/10/02 01:15:31;;;;;;;13.95;8.50;;;;;;;16.47;100.00;101983.53;5075782;28;20209;-75
2023/10/02 01:18:21;;;;;;;13.43;7.82;;;;;;;16.45;100.00;101980.09;5076433;28;20264;-75
2023/10/02 01:20:53;;;;;;;12.68;7.85;;;;;;;16.45;100.00;101974.81;5075622;28;20269;-75
2023/10/02 01:23:25;;;;;;;13.10;7.78;;;;;;;16.46;100.00;101983.59;5076158;28;20094;-75
2023/10/02 01:25:51;;;;;;;14.23;8.13;;;;;;;16.45;100.00;101979.25;5075317;28;20033;-75
2023/10/02 01:28:25;;;;;;;11.13;7.15;;;;;;;16.44;100.00;101974.88;5076229;28;20040;-75
2023/10/02 01:30:51;;;;;;;13.30;7.85;;;;;;;16.41;100.00;101983.84;5075723;28;20028;-75
2023/10/02 01:33:26;;;;;;;12.38;7.80;;;;;;;16.41;100.00;101980.31;5075939;28;20233;-75
2023/10/02 01:35:56;;;;;;;13.32;7.35;;;;;;;16.41;100.00;101977.66;5076009;28;20044;-75
2023/10/02 01:38:31;;;;;;;15.60;7.85;;;;;;;16.41;100.00;101982.94;5075893;28;20109;-75
2023/10/02 01:43:33;;;;;;;13.15;7.68;;;;;;;16.37;100.00;101970.81;5075511;28;20072;-75
2023/10/02 01:46:00;;;;;;;12.40;7.25;;;;;;;16.37;100.00;101973.47;5075876;28;20171;-75
2023/10/02 01:48:44;;;;;;;12.13;7.47;;;;;;;16.37;100.00;101968.16;5075732;28;20028;-75
2023/10/02 01:51:21;;;;;;;12.15;7.15;;;;;;;16.37;100.00;101976.97;5076038;28;20339;-75
2023/10/02 01:53:51;;;;;;;12.15;7.15;;;;;;;16.37;100.00;101984.03;5075101;28;20097;-75
2023/10/02 01:56:18;;;;;;;12.20;7.30;;;;;;;16.38;100.00;101981.31;5075185;28;20051;-75
2023/10/02 01:58:50;;;;;;;13.45;7.53;;;;;;;16.38;100.00;101977.84;5075172;28;20212;-75
2023/10/02 02:01:16;;;;;;;11.63;7.35;;;;;;;16.37;100.00;101974.34;5076007;28;20035;-75
2023/10/02 02:03:48;;;;;;;13.40;7.88;;;;;;;16.36;100.00;101977.06;5075027;28;20035;-75
2023/10/02 02:06:20;;;;;;;15.88;8.30;;;;;;;16.34;100.00;101970.97;5075425;28;20040;-75
2023/10/02 02:08:49;;;;;;;11.63;7.43;;;;;;;16.33;100.00;101959.53;5075329;28;20066;-75
2023/10/02 02:11:21;;;;;;;18.35;9.25;;;;;;;16.33;100.00;101962.16;5075241;28;20028;-74
2023/10/02 02:13:52;;;;;;;16.00;8.55;;;;;;;16.33;100.00;101961.31;5074698;28;20374;-74
2023/10/02 02:16:25;;;;;;;15.30;7.93;;;;;;;16.31;100.00;101959.59;5075625;28;20037;-74
2023/10/02 02:18:53;;;;;;;14.70;8.10;;;;;;;16.30;100.00;101960.53;5074933;28;20028;-74
2023/10/02 02:21:20;;;;;;;14.65;8.43;;;;;;;16.28;100.00;101961.53;5075082;28;20033;-74
2023/10/02 02:23:46;;;;;;;15.18;8.00;;;;;;;16.27;100.00;101959.81;5074263;28;20024;-74
2023/10/02 02:26:22;;;;;;;13.57;8.00;;;;;;;16.27;100.00;101957.19;5074905;28;20040;-74
2023/10/02 02:28:49;;;;;;;13.48;7.60;;;;;;;16.25;100.00;101954.59;5074818;28;20057;-74
2023/10/02 02:31:29;;;;;;;14.48;7.22;;;;;;;16.24;100.00;101957.31;5075024;28;20095;-74
2023/10/02 02:33:59;;;;;;;14.80;8.52;;;;;;;16.21;100.00;101955.69;5075129;28;20044;-74
2023/10/02 02:36:26;;;;;;;13.32;7.90;;;;;;;16.19;100.00;101965.47;5074976;28;20542;-74
2023/10/02 02:39:08;;;;;;;13.48;8.10;;;;;;;16.17;100.00;101962.06;5074982;28;20051;-74
2023/10/02 02:41:35;;;;;;;14.18;8.00;;;;;;;16.14;100.00;101958.69;5074120;28;20032;-74
2023/10/02 02:44:02;;;;;;;16.23;8.55;;;;;;;16.11;100.00;101957.88;5075339;28;20225;-74
2023/10/02 02:46:29;;;;;;;13.48;8.07;;;;;;;16.10;100.00;101960.63;5074845;28;20040;-74
2023/10/02 02:48:56;;;;;;;13.50;7.80;;;;;;;16.08;100.00;101958.03;5075258;28;20091;-74
2023/10/02 02:51:21;;;;;;;13.05;7.75;;;;;;;16.07;100.00;101961.59;5074957;28;20036;-74
2023/10/02 02:53:47;;;;;;;12.88;8.13;;;;;;;16.03;100.00;101957.38;5074110;28;20399;-74
2023/10/02 02:56:17;;;;;;;14.38;8.02;;;;;;;16.02;100.00;101962.75;5074706;28;20106;-74
2023/10/02 02:58:55;;;;;;;14.93;8.55;;;;;;;15.98;100.00;101962.03;5072927;28;20483;-74
2023/10/02 03:01:21;;;;;;;13.00;7.50;;;;;;;15.97;100.00;101959.44;5074733;28;20399;-74
2023/10/02 03:03:56;;;;;;;15.95;7.78;;;;;;;15.96;100.00;101963.03;5074678;28;20032;-74
2023/10/02 03:06:22;;;;;;;12.90;8.30;;;;;;;15.95;100.00;101963.94;5074776;28;20048;-74
2023/10/02 03:08:52;;;;;;;13.63;8.00;;;;;;;15.93;100.00;101964.00;5074074;28;20047;-74
2023/10/02 03:11:19;;;;;;;12.18;7.10;;;;;;;15.92;100.00;101963.16;5074239;28;20326;-74
2023/10/02 03:13:46;;;;;;;15.73;8.05;;;;;;;15.92;100.00;101962.31;5074223;28;20056;-74
2023/10/02 03:16:29;;;;;;;15.30;8.45;;;;;;;15.89;100.00;101955.38;5074330;28;20059;-74
2023/10/02 03:18:55;;;;;;;14.23;7.78;;;;;;;15.86;100.00;101952.00;5074440;28;20097;-74
2023/10/02 03:21:24;;;;;;;14.13;7.78;;;;;;;15.84;100.00;101949.44;5069838;28;20265;-74
2023/10/02 03:23:54;;;;;;;11.23;7.60;;;;;;;15.82;100.00;101953.09;5073914;28;20274;-74
2023/10/02 03:29:02;;;;;;;15.35;8.73;;;;;;;15.79;100.00;101945.28;5074472;28;20063;-74
2023/10/02 03:31:57;;;;;;;13.38;7.68;;;;;;;15.78;100.00;101941.78;5073885;28;20263;-74
2023/10/02 03:34:30;;;;;;;14.50;7.68;;;;;;;15.77;100.00;101940.09;5077050;28;20235;-74
2023/10/02 03:37:07;;;;;;;17.05;7.88;;;;;;;15.76;100.00;101941.00;5078426;28;20039;-74
2023/10/02 03:42:21;;;;;;;14.55;7.97;;;;;;;15.76;100.00;101934.88;5078172;28;20035;-74
2023/10/02 03:44:49;;;;;;;13.48;7.75;;;;;;;15.76;100.00;101935.72;5078099;28;20028;-74
2023/10/02 03:47:15;;;;;;;15.82;8.35;;;;;;;15.75;100.00;101934.00;5078354;28;20028;-74
2023/10/02 03:49:44;;;;;;;15.02;8.85;;;;;;;15.74;100.00;101943.72;5076292;28;20027;-74
2023/10/02 03:52:16;;;;;;;13.75;8.65;;;;;;;15.75;100.00;101934.00;5078085;28;20056;-74
2023/10/02 03:54:45;;;;;;;16.10;8.73;;;;;;;15.76;100.00;101937.53;5077579;28;20237;-74
2023/10/02 04:00:44;;;;;;;10.90;7.28;;;;;;;15.77;100.00;101926.91;5078174;28;20096;-74
2023/10/02 04:02:52;;;;;;;13.13;8.63;;;;;;;15.75;100.00;101918.16;5069217;28;20040;-74
2023/10/02 04:05:32;;;;;;;14.70;8.55;;;;;;;15.76;100.00;101914.59;5077935;28;20267;-74
2023/10/02 04:08:21;;;;;;;15.38;8.55;;;;;;;15.74;100.00;101908.53;5078168;28;20379;-74
2023/10/02 04:10:57;;;;;;;16.02;8.07;;;;;;;15.74;100.00;101916.47;5077279;28;20051;-74
2023/10/02 04:13:29;;;;;;;14.60;8.43;;;;;;;15.71;100.00;101906.84;5077302;28;20032;-74
2023/10/02 04:16:28;;;;;;;13.43;8.55;;;;;;;15.70;100.00;101910.44;5077669;28;20103;-74
2023/10/02 04:18:58;;;;;;;14.77;8.80;;;;;;;15.69;100.00;101915.78;5076887;28;20044;-74
2023/10/02 04:21:25;;;;;;;12.30;7.85;;;;;;;15.66;100.00;101916.78;5077502;28;20048;-74
2023/10/02 04:23:53;;;;;;;16.48;8.75;;;;;;;15.65;100.00;101922.97;5076975;28;20219;-74
2023/10/02 04:26:20;;;;;;;16.40;8.68;;;;;;;15.66;100.00;101927.34;5077578;28;20043;-74
2023/10/02 04:28:58;;;;;;;14.32;8.00;;;;;;;15.66;100.00;101918.53;5076885;28;20062;-74
2023/10/02 04:31:28;;;;;;;16.58;8.35;;;;;;;15.66;100.00;101921.19;5077368;28;20036;-74
2023/10/02 04:34:15;;;;;;;18.63;8.98;;;;;;;15.64;100.00;101915.97;5077269;28;20047;-74
2023/10/02 04:36:42;;;;;;;17.77;8.43;;;;;;;15.65;100.00;101920.34;5077233;28;20099;-74
2023/10/02 04:39:51;;;;;;;16.95;8.57;;;;;;;15.66;100.00;101923.81;5077153;28;20028;-74
2023/10/02 04:42:11;;;;;;;16.17;8.55;;;;;;;15.65;100.00;101911.56;5076735;28;20073;-74
2023/10/02 04:44:44;;;;;;;14.90;7.55;;;;;;;15.62;100.00;101912.53;5076037;28;20040;-74
2023/10/02 04:47:17;;;;;;;15.90;8.38;;;;;;;15.62;100.00;101915.19;5077140;28;20056;-74
2023/10/02 04:50:33;;;;;;;14.20;8.25;;;;;;;15.60;100.00;101924.94;5076741;28;20319;-74
2023/10/02 04:55:23;;;;;;;13.90;8.50;;;;;;;15.60;100.00;101932.88;5076957;28;20366;-74
2023/10/02 04:57:54;;;;;;;14.85;8.57;;;;;;;15.59;100.00;101931.19;5076654;28;20209;-74
2023/10/02 05:00:27;;;;;;;13.27;8.63;;;;;;;15.59;100.00;101931.19;5076883;28;20037;-74
2023/10/02 05:03:17;;;;;;;13.90;7.97;;;;;;;15.60;100.00;101939.94;5076583;28;20327;-74
2023/10/02 05:05:53;;;;;;;16.15;9.73;;;;;;;15.60;100.00;101934.66;5075932;28;20059;-74
2023/10/02 05:08:33;;;;;;;17.75;9.40;;;;;;;15.59;100.00;101927.66;5076589;28;20044;-74
2023/10/02 05:11:06;;;;;;;18.30;9.77;;;;;;;15.58;100.00;101924.16;5076400;28;20029;-74
2023/10/02 05:16:45;;;;;;;16.90;9.45;;;;;;;15.57;100.00;101932.16;4994000;28;20034;-74
2023/10/02 05:19:14;;;;;;;14.32;8.98;;;;;;;15.57;100.00;101932.16;5063023;28;20110;-74
2023/10/02 05:21:39;;;;;;;16.13;10.00;;;;;;;15.56;100.00;101928.66;5075905;28;20315;-74
2023/10/02 05:24:11;;;;;;;16.40;8.82;;;;;;;15.58;100.00;101928.59;5076679;28;20032;-74
2023/10/02 05:26:39;;;;;;;14.40;9.07;;;;;;;15.59;100.00;101922.38;5075895;28;20342;-74
2023/10/02 05:29:12;;;;;;;15.93;8.65;;;;;;;15.58;100.00;101923.31;5076077;28;20031;-74
2023/10/02 05:31:40;;;;;;;18.02;9.55;;;;;;;15.56;100.00;101928.66;5075612;28;20335;-74
2023/10/02 05:34:25;;;;;;;16.23;9.02;;;;;;;15.55;100.00;101933.09;5076052;28;20357;-74
2023/10/02 05:37:11;;;;;;;15.18;9.13;;;;;;;15.56;100.00;101928.66;5075794;28;20040;-74
2023/10/02 05:39:40;;;;;;;15.55;9.43;;;;;;;15.57;100.00;101937.44;5075382;28;20040;-74
2023/10/02 05:42:07;;;;;;;21.55;10.45;;;;;;;15.55;100.00;101933.09;5075683;28;20040;-74
2023/10/02 05:44:36;;;;;;;16.08;9.40;;;;;;;15.57;100.00;101948.00;5075271;28;20047;-74
2023/10/02 05:47:05;;;;;;;17.85;9.63;;;;;;;15.57;100.00;101945.34;5075839;28;20058;-74
2023/10/02 05:49:30;;;;;;;;;;;;;;;15.58;100.00;101953.22;5071511;28;20100;-74
2023/10/02 05:51:55;;;;;;;13.63;8.10;;;;;;;15.59;100.00;101956.69;5075041;28;19912;-74
2023/10/02 05:54:29;;;;;;;14.07;8.07;;;;;;;15.60;100.00;101961.91;5075475;28;20036;-74
2023/10/02 05:57:12;;;;;;;15.05;8.82;;;;;;;15.60;100.00;101954.00;5075321;28;20041;-74
2023/10/02 05:59:45;;;;;;;14.23;8.05;;;;;;;15.61;100.00;101945.16;5074957;28;20043;-74
2023/10/02 06:02:15;;;;;;;12.68;7.45;;;;;;;15.63;100.00;101956.50;5075304;28;20036;-74
2023/10/02 06:04:47;;;;;;;15.55;8.50;;;;;;;15.63;100.00;101956.50;5074901;28;20063;-74
2023/10/02 06:07:40;;;;;;;14.65;9.00;;;;;;;15.64;100.00;101954.72;5075630;28;20044;-74
2023/10/02 06:10:08;;;;;;;14.65;8.40;;;;;;;15.64;100.00;101952.94;5074574;28;20021;-74
2023/10/02 06:12:34;;;;;;;16.92;9.20;;;;;;;15.65;100.00;101948.53;5073995;28;20406;-74
2023/10/02 06:15:15;;;;;;;20.92;10.43;;;;;;;15.64;100.00;101960.00;5075298;28;20073;-74
2023/10/02 06:17:43;;;;;;;17.65;9.52;;;;;;;15.65;100.00;101961.72;5073359;28;20227;-74
2023/10/02 06:20:17;;;;;;;20.50;10.55;;;;;;;15.65;100.00;101964.38;5070995;28;20327;-74
2023/10/02 06:22:47;;;;;;;17.13;8.65;;;;;;;15.66;100.00;101960.78;5074331;28;20095;-74
2023/10/02 06:25:18;;;;;;;18.88;10.00;;;;;;;15.66;100.00;101952.88;5074859;28;20035;-74
2023/10/02 06:27:45;;;;;;;17.83;9.77;;;;;;;15.66;100.00;101966.94;5073750;28;20091;-74
2023/10/02 06:30:16;;;;;;;15.98;9.25;;;;;;;15.67;100.00;101963.38;5074793;28;20272;-73
2023/10/02 06:32:53;;;;;;;13.70;8.93;;;;;;;15.69;100.00;101973.88;5074044;28;20031;-73
2023/10/02 06:35:21;;;;;;;15.13;9.45;;;;;;;15.70;100.00;101957.09;5074589;28;20174;-73
2023/10/02 06:37:51;;;;;;;20.25;10.25;;;;;;;15.71;100.00;101964.94;5074034;28;20267;-73
2023/10/02 06:40:20;;;;;;;16.27;9.60;;;;;;;15.72;100.00;101971.09;5074387;28;20348;-73
2023/10/02 06:42:49;;;;;;;16.40;9.68;;;;;;;15.72;100.00;101971.94;5073593;28;20028;-73
2023/10/02 06:45:20;;;;;;;18.00;10.00;;;;;;;15.76;100.00;101977.13;5074614;28;20123;-73
2023/10/02 06:47:48;;;;;;;16.50;9.98;;;;;;;15.77;100.00;101969.16;5073797;28;20051;-73
2023/10/02 06:50:31;;;;;;;17.38;8.90;;;;;;;15.77;100.00;101969.16;5073996;28;20044;-73
2023/10/02 06:52:59;;;;;;;17.52;9.98;;;;;;;15.79;100.00;101955.84;5074419;28;20097;-73
2023/10/02 06:55:26;;;;;;;;;;;;;;;15.79;100.00;101956.72;5072293;28;20032;-73
2023/10/02 06:57:52;;;;;;;18.00;9.27;;;;;;;15.79;100.00;101962.00;5074151;28;20407;-73
2023/10/02 07:00:19;;;;;;;17.30;9.88;;;;;;;15.80;100.00;101963.72;5074357;28;20086;-73
2023/10/02 07:03:04;;;;;;;13.77;9.20;;;;;;;15.82;100.00;101967.13;5071274;28;20200;-73
2023/10/02 07:05:33;;;;;;;17.27;9.98;;;;;;;15.85;100.00;101971.44;5071587;28;20040;-73
2023/10/02 07:08:18;;;;;;;16.83;9.57;;;;;;;15.87;100.00;101974.88;5074289;28;20082;-73
2023/10/02 07:10:44;;;;;;;16.63;9.98;;;;;;;15.89;100.00;101979.13;5065559;28;20056;-73
2023/10/02 07:13:19;;;;;;;15.98;8.88;;;;;;;15.94;100.00;101973.66;5071809;28;20074;-73
2023/10/02 07:15:45;;;;;;;20.02;10.60;;;;;;;15.97;100.00;101976.19;5073929;28;20043;-73
2023/10/02 07:18:12;;;;;;;28.60;13.20;;;;;;;16.01;100.00;101974.22;5073802;28;20033;-73
2023/10/02 07:20:42;;;;;;;24.08;12.10;;;;;;;16.04;100.00;101979.38;5059270;28;20135;-73
2023/10/02 07:23:19;;;;;;;19.15;10.85;;;;;;;16.07;100.00;101987.19;5052740;28;20032;-73
2023/10/02 07:25:50;;;;;;;18.92;9.18;;;;;;;16.09;100.00;101994.09;5056297;28;20032;-73
2023/10/02 07:28:21;;;;;;;15.95;9.70;;;;;;;16.10;100.00;101984.41;5068658;28;20070;-73
2023/10/02 07:30:53;;;;;;;25.58;12.55;;;;;;;16.12;100.00;101993.13;5070935;28;20040;-73
2023/10/02 07:33:19;;;;;;;21.77;11.13;;;;;;;16.15;100.00;102000.88;5066635;28;20095;-73
2023/10/02 07:35:54;;;;;;;23.10;11.27;;;;;;;16.16;100.00;101999.97;5071219;28;20215;-73
2023/10/02 07:38:30;;;;;;;18.13;9.98;;;;;;;16.18;100.00;102003.38;5071689;28;20100;-74
2023/10/02 07:41:08;;;;;;;17.83;9.40;;;;;;;16.22;100.00;102010.25;5071557;28;20128;-74
2023/10/02 07:43:34;;;;;;;20.90;9.57;;;;;;;16.24;100.00;102008.38;5069388;28;20029;-75
2023/10/02 07:46:14;;;;;;;15.65;8.95;;;;;;;16.27;100.00;102016.19;5071092;28;20277;-75
2023/10/02 07:48:55;;;;;;;20.75;10.95;;;;;;;16.30;100.00;102015.19;5070138;28;20354;-75
2023/10/02 07:51:30;;;;;;;17.17;9.32;;;;;;;16.35;100.00;102012.31;5070913;28;20078;-75
2023/10/02 07:53:58;;;;;;;15.38;9.25;;;;;;;16.39;100.00;102014.78;5072681;28;20063;-73
2023/10/02 07:56:24;;;;;;;23.92;12.18;;;;;;;16.43;100.00;102007.56;5070659;28;20361;-73
2023/10/02 07:59:01;;;;;;;23.35;11.93;;;;;;;16.45;100.00;102003.06;5066727;28;20056;-73
2023/10/02 08:01:27;;;;;;;17.13;10.68;;;;;;;16.47;100.00;102007.31;5069925;28;20043;-73
2023/10/02 08:03:55;;;;;;;26.00;13.05;;;;;;;16.50;100.00;102011.63;5067713;28;20402;-73
2023/10/02 08:11:54;;;;;;;21.58;12.50;;;;;;;16.63;100.00;102006.63;5070346;28;20104;-73
2023/10/02 08:17:27;;;;;;;29.15;14.48;;;;;;;16.68;100.00;102009.88;5070537;28;20364;-73
2023/10/02 08:19:56;;;;;;;30.50;14.40;;;;;;;16.70;100.00;102006.25;5070422;28;20047;-73
2023/10/02 08:22:23;;;;;;;;;;;;;;;16.72;100.00;102000.88;5074767;28;20033;-73
2023/10/02 08:24:49;;;;;;;31.50;12.70;;;;;;;16.74;100.00;102006.97;5073008;28;20006;-73
2023/10/02 08:27:15;;;;;;;29.20;13.85;;;;;;;16.77;100.00;101998.88;5073823;28;20108;-73
2023/10/02 08:29:41;;;;;;;24.55;13.60;;;;;;;16.81;100.00;102002.25;5074921;28;20266;-73
2023/10/02 08:32:06;;;;;;;35.53;16.75;;;;;;;16.85;100.00;101988.81;5086184;28;20322;-73
2023/10/02 08:34:32;;;;;;;23.73;13.40;;;;;;;16.88;100.00;101987.78;5073608;28;20032;-73
2023/10/02 08:37:09;;;;;;;29.88;13.88;;;;;;;16.92;100.00;101986.72;5074149;28;20228;-73
2023/10/02 08:39:36;;;;;;;40.00;18.63;;;;;;;16.97;100.00;101990.00;5073968;28;20429;-73
2023/10/02 08:42:10;;;;;;;40.33;18.17;;;;;;;17.04;100.00;101987.88;5074627;28;20032;-73
2023/10/02 08:44:38;;;;;;;32.83;15.50;;;;;;;17.10;100.00;101994.66;5074398;28;20040;-73
2023/10/02 08:47:11;;;;;;;36.80;17.50;;;;;;;17.15;100.00;102000.59;5075117;28;20037;-73
2023/10/02 08:49:40;;;;;;;43.47;17.75;;;;;;;17.20;100.00;102003.88;5074368;28;20215;-73
2023/10/02 08:52:11;;;;;;;38.03;17.83;;;;;;;17.27;100.00;102006.13;5074915;28;20369;-73
2023/10/02 08:54:42;;;;;;;35.15;16.05;;;;;;;17.34;100.00;102000.53;5074313;28;20342;-73
2023/10/02 08:57:09;;;;;;;45.08;18.52;;;;;;;17.38;100.00;102002.09;5074555;28;20104;-73
2023/10/02 08:59:38;;;;;;;33.55;16.42;;;;;;;17.42;100.00;102004.47;5073743;28;20310;-73
2023/10/02 09:02:15;;;;;;;29.33;14.90;;;;;;;17.47;100.00;102004.25;5069427;28;20036;-73
2023/10/02 09:04:42;;;;;;;32.90;14.43;;;;;;;17.51;100.00;101997.00;5060018;28;20321;-73
2023/10/02 09:08:01;;;;;;;36.03;16.10;;;;;;;17.56;100.00;101987.03;5088062;28;20107;-73
2023/10/02 09:10:26;;;;;;;30.58;14.45;;;;;;;17.62;100.00;101990.22;5071364;28;20498;-73
2023/10/02 09:13:14;;;;;;;36.95;17.77;;;;;;;17.70;100.00;101988.94;5073151;28;20100;-73
2023/10/02 09:15:53;;;;;;;36.05;18.00;;;;;;;17.77;100.00;101993.88;5073027;28;20339;-73
2023/10/02 09:21:23;;;;;;;36.38;17.42;;;;;;;17.86;100.00;101994.34;5073530;28;19978;-73
2023/10/02 09:23:52;;;;;;;44.15;18.05;;;;;;;17.86;100.00;101986.41;5072431;28;20040;-73
2023/10/02 09:26:26;;;;;;;37.78;18.98;;;;;;;17.87;100.00;101988.97;5070967;28;20330;-73
2023/10/02 09:29:05;;;;;;;29.83;15.45;;;;;;;17.89;100.00;101991.53;5071314;28;20066;-73
2023/10/02 09:31:35;;;;;;;24.85;13.90;;;;;;;17.89;100.00;101970.34;5072062;28;20390;-73
2023/10/02 09:34:16;;;;;;;26.88;13.60;;;;;;;17.90;100.00;101983.50;5072934;28;20243;-73
2023/10/02 09:36:52;;;;;;;33.50;15.43;;;;;;;17.92;100.00;101978.09;5072938;28;20343;-73
2023/10/02 09:39:36;;;;;;;24.17;12.43;;;;;;;17.92;100.00;101975.44;5073859;28;20036;-73
2023/10/02 09:42:08;;;;;;;25.58;12.95;;;;;;;17.94;100.00;101958.56;5072828;28;20063;-73
2023/10/02 09:44:45;;;;;;;30.30;14.73;;;;;;;17.98;100.00;101967.19;5072627;28;20024;-73
2023/10/02 09:47:15;;;;;;;22.35;12.07;;;;;;;17.99;100.00;101969.75;5073234;28;20099;-73
2023/10/02 09:50:11;;;;;;;35.25;15.05;;;;;;;18.01;100.00;101969.69;5072922;28;20029;-73
2023/10/02 09:53:00;;;;;;;33.53;14.93;;;;;;;18.03;100.00;101963.34;5072242;28;20040;-73
2023/10/02 09:55:46;;;;;;;24.15;13.90;;;;;;;18.05;100.00;101965.91;5070318;28;20222;-73
2023/10/02 09:58:28;;;;;;;25.27;12.88;;;;;;;18.08;100.00;101968.41;5069468;28;20209;-73
2023/10/02 10:03:54;;;;;;;20.20;11.13;;;;;;;18.09;100.00;101964.81;5072621;28;20204;-73
2023/10/02 10:06:27;;;;;;;27.38;14.95;;;;;;;18.13;100.00;101966.34;5072084;28;20072;-73
2023/10/02 10:11:46;;;;;;;30.10;15.18;;;;;;;18.22;100.00;101959.69;5068162;28;20394;-73
2023/10/02 10:14:45;;;;;;;22.58;11.95;;;;;;;18.25;100.00;101956.03;5071804;28;20036;-73
2023/10/02 10:17:16;;;;;;;23.35;12.57;;;;;;;18.30;100.00;101962.78;5074136;28;20406;-73
2023/10/02 10:20:08;;;;;;;19.45;10.82;;;;;;;18.34;100.00;101952.88;5070184;28;20191;-73
2023/10/02 10:22:40;;;;;;;21.40;11.18;;;;;;;18.38;100.00;101954.41;5076850;28;20032;-73
2023/10/02 10:25:32;;;;;;;22.45;12.27;;;;;;;18.43;100.00;101952.34;5068468;28;20064;-75
2023/10/02 10:27:59;;;;;;;20.05;11.45;;;;;;;18.50;100.00;101960.78;5075029;28;20097;-73
2023/10/02 10:30:25;;;;;;;23.67;10.75;;;;;;;18.55;100.00;101956.09;5072385;28;20052;-73
2023/10/02 10:35:40;;;;;;;21.77;11.57;;;;;;;18.67;100.00;101957.22;5071311;28;20048;-73
2023/10/02 10:38:28;;;;;;;23.42;12.43;;;;;;;18.71;100.00;101948.13;5072449;28;20040;-73
2023/10/02 10:41:00;;;;;;;;;;;;;;;18.74;100.00;101956.75;5072680;28;20036;-73
2023/10/02 10:43:43;;;;;;;16.23;9.88;;;;;;;18.78;100.00;101958.28;5073063;28;19915;-73
2023/10/02 10:46:13;;;;;;;18.20;9.88;;;;;;;18.80;100.00;101955.53;5076241;28;20404;-73
2023/10/02 10:48:40;;;;;;;19.90;9.65;;;;;;;18.80;100.00;101958.19;5070767;28;20028;-73
2023/10/02 10:51:20;;;;;;;19.17;9.77;;;;;;;18.81;100.00;101957.31;5070634;28;20047;-73
2023/10/02 10:53:47;;;;;;;18.00;9.30;;;;;;;18.82;100.00;101956.34;5068163;28;20032;-73
2023/10/02 10:56:18;;;;;;;12.18;7.43;;;;;;;18.84;100.00;101958.91;5068611;28;20315;-73
2023/10/02 10:58:51;;;;;;;19.67;10.15;;;;;;;18.85;100.00;101953.53;5069722;28;20285;-73
2023/10/02 11:01:16;;;;;;;17.33;9.98;;;;;;;18.87;100.00;101956.94;5071550;28;20126;-73
2023/10/02 11:03:49;;;;;;;22.70;9.57;;;;;;;18.91;100.00;101947.00;5073929;28;20084;-73
2023/10/02 11:06:16;;;;;;;13.60;7.90;;;;;;;18.96;100.00;101952.91;5067706;28;20052;-73
2023/10/02 11:08:44;;;;;;;21.30;10.15;;;;;;;19.03;100.00;101948.06;5069516;28;20056;-73
2023/10/02 11:11:21;;;;;;;17.63;8.80;;;;;;;19.07;100.00;101944.31;5070338;28;20086;-73
2023/10/02 11:13:53;;;;;;;15.70;9.18;;;;;;;19.08;100.00;101944.22;5066116;28;20263;-73
2023/10/02 11:16:34;;;;;;;16.05;9.38;;;;;;;19.07;100.00;101939.84;5071743;28;20108;-73
2023/10/02 11:19:21;;;;;;;22.95;11.00;;;;;;;19.09;100.00;101940.59;5069932;28;20446;-73
2023/10/02 11:22:22;;;;;;;21.20;10.88;;;;;;;19.09;100.00;101951.22;5069118;28;20422;-73
2023/10/02 11:24:53;;;;;;;15.77;8.82;;;;;;;19.09;100.00;101947.72;5068775;28;20043;-73
2023/10/02 11:27:19;;;;;;;17.70;9.88;;;;;;;19.08;100.00;101938.91;5069302;28;20043;-73
2023/10/02 11:30:02;;;;;;;18.33;10.00;;;;;;;19.12;100.00;101940.44;5070897;28;20078;-73
2023/10/02 11:32:58;;;;;;;20.13;9.65;;;;;;;19.18;100.00;101933.91;5069916;28;20028;-73
2023/10/02 11:35:28;;;;;;;16.42;9.38;;;;;;;19.23;100.00;101928.28;5071458;28;20041;-73
2023/10/02 11:37:55;;;;;;;17.58;8.65;;;;;;;19.27;100.00;101920.06;5071837;28;20044;-73
2023/10/02 11:40:24;;;;;;;12.70;7.07;;;;;;;19.31;100.00;101918.06;5072260;28;20289;-73
2023/10/02 11:42:50;;;;;;;12.88;7.10;;;;;;;19.34;100.00;101924.06;5071183;28;20282;-73
2023/10/02 11:45:17;;;;;;;21.85;10.80;;;;;;;19.38;100.00;101919.41;5072189;28;20039;-73
2023/10/02 11:47:42;;;;;;;17.88;9.48;;;;;;;19.40;100.00;101920.16;5069048;28;20257;-73
2023/10/02 11:50:08;;;;;;;19.75;9.90;;;;;;;19.42;100.00;101918.28;5071255;28;20348;-73
2023/10/02 11:52:34;;;;;;;16.42;9.30;;;;;;;19.47;100.00;101907.38;5071009;28;20085;-73
2023/10/02 11:54:59;;;;;;;19.85;9.15;;;;;;;19.51;100.00;101912.38;5067695;28;20091;-73
2023/10/02 11:57:24;;;;;;;18.02;8.88;;;;;;;19.55;100.00;101903.31;5053420;28;20039;-73
2023/10/02 11:59:50;;;;;;;18.50;9.50;;;;;;;19.57;100.00;101900.53;5070985;28;20331;-73
2023/10/02 12:02:19;;;;;;;9.80;6.85;;;;;;;19.61;100.00;101898.53;5075548;28;20099;-73
2023/10/02 12:04:46;;;;;;;20.88;9.57;;;;;;;19.64;100.00;101895.69;5072852;28;20114;-73
2023/10/02 12:07:16;;;;;;;16.65;9.80;;;;;;;19.70;100.00;101893.53;5073967;28;20036;-73
2023/10/02 12:09:44;;;;;;;22.40;10.15;;;;;;;19.73;100.00;101887.19;5069211;28;20487;-73
2023/10/02 12:12:11;;;;;;;21.00;9.32;;;;;;;19.73;100.00;101888.03;5074022;28;20020;-73
2023/10/02 12:14:39;;;;;;;14.85;8.13;;;;;;;19.79;100.00;101884.13;5073850;28;20056;-73
2023/10/02 12:17:05;;;;;;;;;;;;;;;19.82;100.00;101877.78;5074553;28;20036;-73